Time;durP1;ratioP1;P1;durP2;ratioP2;P2;SDS_P1;SDS_P2;PMS_P1;PMS_P2;Temp;Humidity;BMP_temperature;BMP_pressure;BME280_temperature;BME280_humidity;BME280_pressure;Samples;Min_cycle;Max_cycle;Signal;HPM_P1;HPM_P2
2021/08/25 00:00:43;;;;;;;0.40;0.20;;;;;;;13.24;100.00;101030.53;5052314;28;20867;-54
2021/08/25 00:03:11;;;;;;;0.40;0.20;;;;;;;13.25;100.00;101020.72;5052427;28;20508;-53
2021/08/25 00:05:38;;;;;;;0.40;0.20;;;;;;;13.31;100.00;101021.44;5052140;28;20895;-53
2021/08/25 00:08:05;;;;;;;0.40;0.20;;;;;;;13.28;100.00;101021.50;5052360;28;20508;-53
2021/08/25 00:10:33;;;;;;;0.40;0.20;;;;;;;13.16;100.00;101016.50;5052175;28;20458;-53
2021/08/25 00:13:03;;;;;;;0.40;0.20;;;;;;;13.20;100.00;101015.53;5052189;28;20964;-53
2021/08/25 00:15:30;;;;;;;0.40;0.20;;;;;;;13.37;100.00;101009.72;5052134;28;20451;-52
2021/08/25 00:17:57;;;;;;;0.40;0.20;;;;;;;13.47;100.00;101010.31;5052243;28;20458;-53
2021/08/25 00:20:23;;;;;;;0.40;0.27;;;;;;;13.25;100.00;101012.72;5051950;28;20895;-53
2021/08/25 00:22:50;;;;;;;0.40;0.20;;;;;;;13.18;100.00;101003.09;5052074;28;20478;-52
2021/08/25 00:25:18;;;;;;;0.50;0.50;;;;;;;13.35;100.00;101008.88;5051832;28;20447;-52
2021/08/25 00:27:45;;;;;;;0.83;0.70;;;;;;;13.58;100.00;101008.22;5052036;28;20967;-51
2021/08/25 00:30:12;;;;;;;0.40;0.20;;;;;;;13.45;100.00;101004.16;5051958;28;20446;-53
2021/08/25 00:32:39;;;;;;;0.30;0.20;;;;;;;13.53;100.00;101005.66;5052147;28;20604;-52
2021/08/25 00:35:06;;;;;;;0.40;0.20;;;;;;;13.49;100.00;101009.34;5051679;28;20486;-53
2021/08/25 00:37:33;;;;;;;0.40;0.20;;;;;;;13.64;100.00;101010.69;5046945;28;20526;-53
2021/08/25 00:40:00;;;;;;;0.40;0.20;;;;;;;13.69;100.00;101000.75;5051835;28;20569;-52
2021/08/25 00:42:27;;;;;;;0.40;0.20;;;;;;;13.80;100.00;100995.06;5051801;28;20477;-53
2021/08/25 00:44:54;;;;;;;0.40;0.20;;;;;;;13.70;100.00;100999.81;5034091;28;20447;-53
2021/08/25 00:47:21;;;;;;;0.40;0.20;;;;;;;13.66;100.00;100998.16;5052202;28;20502;-54
2021/08/25 00:49:48;;;;;;;0.60;0.60;;;;;;;13.78;100.00;100994.25;5052011;28;20451;-54
2021/08/25 00:52:15;;;;;;;0.40;0.20;;;;;;;13.61;100.00;100992.97;5052037;28;20552;-54
2021/08/25 00:54:41;;;;;;;0.40;0.20;;;;;;;13.67;100.00;100994.56;5051857;28;20489;-54
2021/08/25 00:57:08;;;;;;;1.00;0.73;;;;;;;13.68;100.00;100996.31;5052016;28;20891;-54
2021/08/25 00:59:37;;;;;;;0.40;0.20;;;;;;;13.58;100.00;100992.19;5051736;28;20458;-54
2021/08/25 01:02:27;;;;;;;0.40;0.20;;;;;;;13.44;100.00;100999.75;5033804;28;20956;-54
2021/08/25 01:04:59;;;;;;;0.40;0.20;;;;;;;13.55;100.00;100992.25;5032451;28;20452;-54
2021/08/25 01:07:31;;;;;;;0.40;0.40;;;;;;;13.32;100.00;100985.81;5047508;28;20474;-54
2021/08/25 01:09:58;;;;;;;0.40;0.20;;;;;;;13.39;100.00;100991.84;5051604;28;20451;-54
2021/08/25 01:12:25;;;;;;;0.40;0.20;;;;;;;13.28;100.00;100988.59;5051467;28;20518;-54
2021/08/25 01:14:52;;;;;;;0.50;0.43;;;;;;;13.39;100.00;100988.28;5051545;28;20451;-54
2021/08/25 01:17:24;;;;;;;0.50;0.40;;;;;;;13.38;100.00;100992.75;5051517;28;20482;-54
2021/08/25 01:20:09;;;;;;;0.40;0.20;;;;;;;13.25;100.00;100983.34;5033986;28;20863;-55
2021/08/25 01:22:41;;;;;;;0.30;0.20;;;;;;;13.26;100.00;100980.63;5051568;28;20500;-55
2021/08/25 01:25:09;;;;;;;0.40;0.20;;;;;;;13.14;100.00;100980.06;5033685;28;20474;-54
2021/08/25 01:27:43;;;;;;;0.40;0.20;;;;;;;13.11;100.00;100982.81;5051533;28;20475;-54
2021/08/25 01:30:11;;;;;;;0.40;0.20;;;;;;;12.86;100.00;100963.94;5051021;28;20469;-54
2021/08/25 01:32:39;;;;;;;0.40;0.30;;;;;;;12.88;100.00;100976.31;5051152;28;21026;-54
2021/08/25 01:35:07;;;;;;;0.40;0.20;;;;;;;13.01;100.00;100975.06;5051260;28;20473;-54
2021/08/25 01:37:35;;;;;;;0.37;0.20;;;;;;;12.83;100.00;100972.03;5046300;28;20506;-54
2021/08/25 01:40:03;;;;;;;0.40;0.20;;;;;;;12.95;100.00;100969.91;5033464;28;20996;-54
2021/08/25 01:42:30;;;;;;;0.40;0.20;;;;;;;12.86;100.00;100966.59;5051566;28;20863;-55
2021/08/25 01:44:57;;;;;;;4.33;0.70;;;;;;;12.75;100.00;100966.91;5050994;28;20504;-54
2021/08/25 01:47:24;;;;;;;0.40;0.20;;;;;;;12.88;100.00;100957.63;5051175;28;20517;-55
2021/08/25 01:49:51;;;;;;;0.53;0.53;;;;;;;12.71;100.00;100968.78;5051406;28;20577;-55
2021/08/25 01:52:19;;;;;;;0.40;0.30;;;;;;;12.79;100.00;100960.56;5052922;28;20505;-54
2021/08/25 01:54:47;;;;;;;0.40;0.30;;;;;;;12.66;100.00;100949.34;5055028;28;20450;-54
2021/08/25 01:57:14;;;;;;;0.40;0.40;;;;;;;12.63;100.00;100949.44;5054861;28;20529;-54
2021/08/25 01:59:41;;;;;;;0.60;0.60;;;;;;;12.68;100.00;100955.53;5054866;28;20450;-55
2021/08/25 02:02:08;;;;;;;0.40;0.30;;;;;;;12.72;100.00;100954.50;5054643;28;20454;-55
2021/08/25 02:04:37;;;;;;;0.97;0.97;;;;;;;12.64;100.00;100948.53;5054823;28;20808;-54
2021/08/25 02:07:05;;;;;;;0.40;0.30;;;;;;;12.57;100.00;100951.38;5054516;28;20524;-54
2021/08/25 02:09:32;;;;;;;0.40;0.20;;;;;;;12.42;100.00;100948.19;5054642;28;20875;-54
2021/08/25 02:11:59;;;;;;;0.40;0.20;;;;;;;12.70;100.00;100953.69;5054559;28;20451;-54
2021/08/25 02:14:26;;;;;;;0.40;0.20;;;;;;;12.57;100.00;100949.59;5054153;28;20490;-54
2021/08/25 02:16:53;;;;;;;0.40;0.30;;;;;;;12.40;100.00;100944.69;5054426;28;20510;-54
2021/08/25 02:19:20;;;;;;;0.40;0.20;;;;;;;12.36;100.00;100944.81;5054284;28;20454;-54
2021/08/25 02:21:46;;;;;;;0.40;0.20;;;;;;;12.43;100.00;100944.59;5054375;28;20490;-54
2021/08/25 02:24:13;;;;;;;0.40;0.30;;;;;;;12.48;100.00;100956.97;5054333;28;20471;-54
2021/08/25 02:26:40;;;;;;;0.40;0.20;;;;;;;12.56;100.00;100966.50;5054447;28;20470;-54
2021/08/25 02:29:07;;;;;;;0.40;0.20;;;;;;;12.16;100.00;100955.97;5040933;28;20894;-54
2021/08/25 02:31:34;;;;;;;0.40;0.20;;;;;;;12.38;100.00;100957.19;5054013;28;20963;-54
2021/08/25 02:34:01;;;;;;;0.40;0.20;;;;;;;12.26;100.00;100964.63;5053944;28;21053;-54
2021/08/25 02:36:28;;;;;;;0.40;0.20;;;;;;;12.28;100.00;100952.13;5049360;28;20506;-54
2021/08/25 02:38:55;;;;;;;0.40;0.20;;;;;;;12.45;100.00;100957.91;5054006;28;20849;-54
2021/08/25 02:41:22;;;;;;;0.40;0.20;;;;;;;12.51;100.00;100955.09;5053789;28;20512;-54
2021/08/25 02:43:49;;;;;;;0.40;0.20;;;;;;;12.52;100.00;100955.97;5053942;28;20485;-54
2021/08/25 02:46:18;;;;;;;0.40;0.30;;;;;;;12.57;100.00;100962.91;5053717;28;20509;-54
2021/08/25 02:48:45;;;;;;;0.40;0.20;;;;;;;12.76;100.00;100950.00;5053805;28;20478;-54
2021/08/25 02:51:12;;;;;;;0.30;0.20;;;;;;;12.67;100.00;100943.09;5053432;28;20500;-54
2021/08/25 02:53:39;;;;;;;0.40;0.20;;;;;;;12.72;100.00;100943.84;5053666;28;20633;-54
2021/08/25 02:56:06;;;;;;;0.40;0.20;;;;;;;12.69;100.00;100946.59;5053569;28;20504;-54
2021/08/25 02:58:33;;;;;;;0.30;0.20;;;;;;;12.66;100.00;100944.03;5053631;28;20447;-54
2021/08/25 03:01:00;;;;;;;5.90;0.70;;;;;;;12.55;100.00;100930.09;5035761;28;20483;-54
2021/08/25 03:03:27;;;;;;;0.30;0.20;;;;;;;12.63;100.00;100933.44;5052356;28;20991;-54
2021/08/25 03:05:54;;;;;;;0.40;0.20;;;;;;;12.51;100.00;100924.88;5053398;28;20991;-54
2021/08/25 03:08:21;;;;;;;1.83;0.87;;;;;;;12.50;100.00;100933.81;5053177;28;21021;-54
2021/08/25 03:10:48;;;;;;;0.40;0.20;;;;;;;12.40;100.00;100920.69;5053387;28;20475;-54
2021/08/25 03:13:15;;;;;;;0.37;0.20;;;;;;;12.44;100.00;100922.38;5053359;28;21043;-54
2021/08/25 03:15:42;;;;;;;0.40;0.20;;;;;;;12.44;100.00;100919.69;5053143;28;20500;-54
2021/08/25 03:18:08;;;;;;;0.33;0.20;;;;;;;12.50;100.00;100924.00;5053310;28;20823;-54
2021/08/25 03:20:35;;;;;;;0.40;0.20;;;;;;;12.48;100.00;100923.19;5053310;28;20454;-54
2021/08/25 03:23:02;;;;;;;0.40;0.30;;;;;;;12.52;100.00;100921.31;5053086;28;20474;-54
2021/08/25 03:25:29;;;;;;;0.30;0.20;;;;;;;12.38;100.00;100924.31;5053413;28;20450;-54
2021/08/25 03:27:56;;;;;;;0.40;0.20;;;;;;;12.43;100.00;100917.06;5053231;28;20455;-54
2021/08/25 03:30:23;;;;;;;0.30;0.20;;;;;;;12.33;100.00;100915.56;5052812;28;20504;-54
2021/08/25 03:32:50;;;;;;;0.30;0.20;;;;;;;12.35;100.00;100914.63;5052546;28;20486;-54
2021/08/25 03:35:18;;;;;;;0.40;0.20;;;;;;;12.29;100.00;100919.22;5053057;28;20455;-54
2021/08/25 03:37:44;;;;;;;0.40;0.20;;;;;;;12.12;100.00;100915.19;5048865;28;21060;-54
2021/08/25 03:40:12;;;;;;;0.47;0.47;;;;;;;12.11;100.00;100910.78;5052841;28;20799;-54
2021/08/25 03:42:39;;;;;;;0.40;0.30;;;;;;;11.97;100.00;100912.03;5035595;28;20462;-54
2021/08/25 03:45:07;;;;;;;0.37;0.20;;;;;;;11.75;100.00;100916.94;5053205;28;20502;-54
2021/08/25 03:47:34;;;;;;;0.37;0.20;;;;;;;11.85;100.00;100908.75;5035258;28;21049;-53
2021/08/25 03:50:01;;;;;;;0.40;0.30;;;;;;;11.75;100.00;100909.84;5034990;28;20509;-54
2021/08/25 03:52:28;;;;;;;0.50;0.40;;;;;;;11.66;100.00;100903.88;5052629;28;20451;-54
2021/08/25 03:54:54;;;;;;;0.40;0.20;;;;;;;11.72;100.00;100901.06;5052505;28;20931;-54
2021/08/25 03:57:21;;;;;;;0.40;0.20;;;;;;;11.67;100.00;100890.53;5034730;28;20494;-54
2021/08/25 03:59:48;;;;;;;0.40;0.20;;;;;;;11.66;100.00;100898.53;5049699;28;21106;-54
2021/08/25 04:02:15;;;;;;;0.40;0.40;;;;;;;11.81;100.00;100895.56;5051648;28;20485;-54
2021/08/25 04:04:43;;;;;;;0.40;0.20;;;;;;;11.70;100.00;100886.91;5032813;28;20458;-54
2021/08/25 04:07:10;;;;;;;0.40;0.30;;;;;;;11.80;100.00;100899.13;5045942;28;20528;-54
2021/08/25 04:09:37;;;;;;;0.53;0.47;;;;;;;11.56;100.00;100893.41;5039223;28;20455;-54
2021/08/25 04:12:04;;;;;;;0.73;0.73;;;;;;;11.57;100.00;100892.50;5034569;28;20943;-54
2021/08/25 04:14:31;;;;;;;0.40;0.20;;;;;;;11.43;100.00;100896.41;5052071;28;20491;-54
2021/08/25 04:16:57;;;;;;;0.40;0.20;;;;;;;11.50;100.00;100896.19;5052170;28;20524;-54
2021/08/25 04:19:24;;;;;;;0.30;0.20;;;;;;;11.54;100.00;100897.91;5052228;28;20476;-54
2021/08/25 04:21:51;;;;;;;0.40;0.27;;;;;;;11.50;100.00;100895.31;5052222;28;20520;-54
2021/08/25 04:24:18;;;;;;;0.30;0.20;;;;;;;11.46;100.00;100897.19;5052617;28;20978;-54
2021/08/25 04:26:45;;;;;;;0.70;0.70;;;;;;;11.40;100.00;100894.69;5052192;28;20976;-54
2021/08/25 04:29:12;;;;;;;0.40;0.20;;;;;;;11.06;100.00;100901.63;5052390;28;20478;-54
2021/08/25 04:31:39;;;;;;;0.30;0.20;;;;;;;11.36;100.00;100898.31;5051960;28;20519;-54
2021/08/25 04:34:06;;;;;;;0.40;0.20;;;;;;;11.42;100.00;100889.31;5052197;28;20525;-54
2021/08/25 04:36:33;;;;;;;0.40;0.20;;;;;;;11.43;100.00;100894.59;5047166;28;20930;-54
2021/08/25 04:39:00;;;;;;;0.30;0.20;;;;;;;11.34;100.00;100885.94;5052050;28;20823;-54
2021/08/25 04:41:27;;;;;;;0.60;0.60;;;;;;;11.41;100.00;100896.44;5051976;28;20450;-54
2021/08/25 04:43:55;;;;;;;0.40;0.20;;;;;;;11.37;100.00;100894.72;5052173;28;20801;-54
2021/08/25 04:46:22;;;;;;;0.40;0.20;;;;;;;11.34;100.00;100894.81;5051804;28;20509;-54
2021/08/25 04:48:49;;;;;;;0.30;0.20;;;;;;;11.44;100.00;100896.34;5052115;28;20454;-54
2021/08/25 04:51:16;;;;;;;0.30;0.20;;;;;;;11.28;100.00;100909.13;5051893;28;20486;-54
2021/08/25 04:53:43;;;;;;;0.30;0.20;;;;;;;11.02;100.00;100900.81;5051869;28;20548;-54
2021/08/25 04:56:09;;;;;;;0.37;0.20;;;;;;;11.53;100.00;100906.81;5051847;28;20896;-54
2021/08/25 04:58:36;;;;;;;0.30;0.30;;;;;;;11.21;100.00;100907.50;5051980;28;20974;-54
2021/08/25 05:01:07;;;;;;;0.30;0.20;;;;;;;11.15;100.00;100902.31;5051864;28;20454;-54
2021/08/25 05:03:36;;;;;;;0.40;0.20;;;;;;;11.20;100.00;100911.06;5048211;28;20477;-54
2021/08/25 05:06:08;;;;;;;0.30;0.20;;;;;;;11.23;100.00;100911.00;5049835;28;20467;-54
2021/08/25 05:08:36;;;;;;;0.30;0.20;;;;;;;11.29;100.00;100896.69;5051767;28;20948;-54
2021/08/25 05:11:03;;;;;;;0.40;0.30;;;;;;;11.40;100.00;100899.13;5051694;28;20508;-54
2021/08/25 05:13:31;;;;;;;0.50;0.50;;;;;;;11.36;100.00;100890.31;5051543;28;20482;-54
2021/08/25 05:16:00;;;;;;;0.30;0.20;;;;;;;11.47;100.00;100895.41;5051598;28;20513;-54
2021/08/25 05:18:27;;;;;;;0.30;0.20;;;;;;;11.60;100.00;100904.88;5051757;28;20871;-54
2021/08/25 05:20:54;;;;;;;0.30;0.20;;;;;;;11.79;100.00;100903.59;5051532;28;20504;-54
2021/08/25 05:23:21;;;;;;;0.40;0.33;;;;;;;12.23;100.00;100901.59;5051754;28;20451;-55
2021/08/25 05:25:48;;;;;;;0.30;0.20;;;;;;;12.46;100.00;100899.19;5051697;28;20528;-54
2021/08/25 05:28:15;;;;;;;0.30;0.20;;;;;;;12.77;100.00;100901.06;5055312;28;20967;-54
2021/08/25 05:30:42;;;;;;;0.30;0.20;;;;;;;13.11;100.00;100903.63;5055412;28;20485;-54
2021/08/25 05:33:09;;;;;;;0.30;0.20;;;;;;;13.38;100.00;100893.97;5055292;28;20454;-54
2021/08/25 05:35:36;;;;;;;0.33;0.20;;;;;;;13.73;100.00;100900.88;5055635;28;20528;-54
2021/08/25 05:38:03;;;;;;;0.40;0.20;;;;;;;14.01;100.00;100903.53;5050589;28;20454;-54
2021/08/25 05:40:30;;;;;;;0.37;0.27;;;;;;;14.14;100.00;100901.34;5037856;28;20450;-54
2021/08/25 05:42:57;;;;;;;0.40;0.20;;;;;;;14.36;99.58;100904.16;5055229;28;20450;-54
2021/08/25 05:45:25;;;;;;;0.30;0.20;;;;;;;14.48;99.10;100903.75;5055219;28;20500;-54
2021/08/25 05:47:57;;;;;;;0.30;0.20;;;;;;;14.61;98.60;100904.19;5055073;28;20499;-54
2021/08/25 05:50:25;;;;;;;0.40;0.20;;;;;;;14.65;97.95;100903.16;5055078;28;20482;-54
2021/08/25 05:52:53;;;;;;;0.40;0.20;;;;;;;14.67;97.82;100906.69;5037517;28;20446;-54
2021/08/25 05:55:20;;;;;;;0.40;0.20;;;;;;;14.87;97.58;100908.63;5054910;28;20493;-55
2021/08/25 05:57:47;;;;;;;0.40;0.20;;;;;;;14.83;98.15;100907.88;5054653;28;20860;-54
2021/08/25 06:00:16;;;;;;;0.40;0.20;;;;;;;14.61;99.13;100915.78;5054943;28;20446;-54
2021/08/25 06:02:49;;;;;;;0.40;0.20;;;;;;;14.66;98.80;100912.94;5054814;28;20473;-54
2021/08/25 06:05:17;;;;;;;0.73;0.73;;;;;;;14.51;99.84;100915.22;5054847;28;20477;-54
2021/08/25 06:07:44;;;;;;;0.50;0.40;;;;;;;14.43;100.00;100914.59;5054743;28;20897;-54
2021/08/25 06:10:11;;;;;;;1.00;0.50;;;;;;;14.56;100.00;100901.69;5054908;28;20494;-54
2021/08/25 06:12:38;;;;;;;0.40;0.20;;;;;;;14.43;100.00;100909.25;5054547;28;20485;-55
2021/08/25 06:15:06;;;;;;;0.40;0.20;;;;;;;14.57;100.00;100903.44;5054576;28;20543;-54
2021/08/25 06:17:33;;;;;;;1.17;1.03;;;;;;;14.58;100.00;100907.88;5054894;28;20474;-54
2021/08/25 06:20:00;;;;;;;0.40;0.20;;;;;;;14.54;100.00;100906.25;5054591;28;21043;-54
2021/08/25 06:22:27;;;;;;;0.50;0.50;;;;;;;14.72;100.00;100918.97;5054414;28;20485;-55
2021/08/25 06:24:55;;;;;;;3.43;2.10;;;;;;;14.67;100.00;100906.69;5036928;28;20439;-55
2021/08/25 06:27:23;;;;;;;0.40;0.20;;;;;;;14.76;100.00;100903.66;5054188;28;20463;-54
2021/08/25 06:29:50;;;;;;;0.40;0.20;;;;;;;14.75;100.00;100918.84;5054280;28;20865;-54
2021/08/25 06:32:17;;;;;;;0.40;0.20;;;;;;;14.87;100.00;100908.63;5044524;28;20500;-54
2021/08/25 06:34:44;;;;;;;0.40;0.20;;;;;;;15.08;100.00;100913.22;5054289;28;20573;-54
2021/08/25 06:37:11;;;;;;;0.40;0.20;;;;;;;15.26;100.00;100906.28;5049550;28;20475;-55
2021/08/25 06:39:38;;;;;;;0.40;0.20;;;;;;;15.17;100.00;100910.16;5054287;28;20493;-55
2021/08/25 06:42:04;;;;;;;0.40;0.20;;;;;;;15.25;100.00;100891.16;5054001;28;20490;-55
2021/08/25 06:44:31;;;;;;;1.80;0.87;;;;;;;15.13;100.00;100903.19;5053967;28;20477;-55
2021/08/25 06:46:58;;;;;;;0.40;0.30;;;;;;;15.07;100.00;100896.25;5054497;28;20528;-53
2021/08/25 06:49:25;;;;;;;1.70;1.60;;;;;;;15.42;100.00;100896.72;5053884;28;20447;-54
2021/08/25 06:51:52;;;;;;;0.40;0.20;;;;;;;15.88;99.25;100889.56;5053980;28;20447;-53
2021/08/25 06:54:19;;;;;;;0.60;0.60;;;;;;;15.87;99.45;100893.16;5035949;28;20516;-53
2021/08/25 06:56:46;;;;;;;0.40;0.20;;;;;;;15.90;99.64;100895.75;5053808;28;21149;-53
2021/08/25 06:59:13;;;;;;;0.40;0.20;;;;;;;15.87;99.56;100898.53;5053685;28;20497;-53
2021/08/25 07:01:40;;;;;;;0.40;0.20;;;;;;;16.21;98.60;100889.97;5053898;28;20481;-53
2021/08/25 07:04:07;;;;;;;0.40;0.20;;;;;;;16.31;97.61;100894.03;5053533;28;20522;-53
2021/08/25 07:06:34;;;;;;;0.40;0.20;;;;;;;16.35;97.17;100878.66;5054128;28;20525;-53
2021/08/25 07:09:05;;;;;;;0.40;0.30;;;;;;;16.80;97.18;100884.72;5053487;28;20442;-54
2021/08/25 07:11:33;;;;;;;0.80;0.80;;;;;;;16.40;98.81;100885.56;5053519;28;20948;-54
2021/08/25 07:14:00;;;;;;;0.40;0.20;;;;;;;16.58;98.61;100887.47;5053378;28;20486;-53
2021/08/25 07:16:27;;;;;;;0.40;0.20;;;;;;;16.88;98.56;100885.25;5053322;28;20991;-54
2021/08/25 07:18:54;;;;;;;0.50;0.50;;;;;;;16.64;98.29;100883.63;5053307;28;20451;-53
2021/08/25 07:21:21;;;;;;;0.40;0.20;;;;;;;16.66;99.32;100876.38;5053335;28;20487;-53
2021/08/25 07:23:50;;;;;;;0.40;0.30;;;;;;;16.93;97.65;100882.34;5053264;28;20570;-54
2021/08/25 07:26:17;;;;;;;0.40;0.20;;;;;;;16.68;98.59;100881.72;5053489;28;20952;-53
2021/08/25 07:28:45;;;;;;;0.40;0.20;;;;;;;17.38;96.62;100879.34;5053275;28;20475;-54
2021/08/25 07:31:13;;;;;;;0.40;0.20;;;;;;;17.45;96.15;100877.25;5053273;28;20482;-54
2021/08/25 07:33:41;;;;;;;0.50;0.37;;;;;;;17.67;94.47;100879.78;5053037;28;20478;-54
2021/08/25 07:36:09;;;;;;;0.40;0.20;;;;;;;17.85;93.88;100875.38;5049860;28;20510;-54
2021/08/25 07:38:36;;;;;;;0.50;0.37;;;;;;;18.06;93.08;100874.28;5051646;28;20800;-53
2021/08/25 07:41:04;;;;;;;0.40;0.20;;;;;;;17.79;94.78;100873.81;5053146;28;20512;-54
2021/08/25 07:43:31;;;;;;;0.40;0.20;;;;;;;18.32;92.79;100870.28;5052966;28;20447;-53
2021/08/25 07:45:58;;;;;;;0.40;0.20;;;;;;;18.55;91.77;100861.88;5053100;28;20498;-53
2021/08/25 07:48:25;;;;;;;0.40;0.20;;;;;;;18.11;93.81;100868.69;5052944;28;20868;-54
2021/08/25 07:50:52;;;;;;;0.40;0.20;;;;;;;17.88;94.61;100872.50;5052697;28;20478;-54
2021/08/25 07:53:20;;;;;;;0.40;0.30;;;;;;;17.87;94.77;100862.72;5052724;28;20505;-53
2021/08/25 07:55:47;;;;;;;0.40;0.20;;;;;;;18.19;94.99;100853.00;5052823;28;20544;-53
2021/08/25 07:58:14;;;;;;;0.40;0.20;;;;;;;18.37;93.23;100857.47;5039640;28;20490;-54
2021/08/25 08:00:41;;;;;;;0.50;0.50;;;;;;;18.77;91.79;100856.25;5052626;28;20451;-54
2021/08/25 08:03:08;;;;;;;0.40;0.40;;;;;;;18.97;88.95;100857.88;5052475;28;20898;-54
2021/08/25 08:05:36;;;;;;;0.40;0.20;;;;;;;19.18;88.51;100854.00;5052459;28;20504;-54
2021/08/25 08:08:03;;;;;;;0.90;0.80;;;;;;;19.27;87.67;100854.47;5052698;28;20477;-54
2021/08/25 08:10:30;;;;;;;0.97;0.97;;;;;;;19.42;84.17;100848.19;5052418;28;20455;-55
2021/08/25 08:12:57;;;;;;;0.40;0.20;;;;;;;19.52;83.59;100854.81;5052405;28;20935;-54
2021/08/25 08:15:26;;;;;;;0.40;0.20;;;;;;;19.50;84.30;100852.22;5052206;28;20465;-54
2021/08/25 08:17:53;;;;;;;0.40;0.20;;;;;;;19.27;83.03;100855.31;5052250;28;20466;-54
2021/08/25 08:20:21;;;;;;;0.50;0.37;;;;;;;19.42;81.58;100859.84;5052205;28;20447;-54
2021/08/25 08:22:48;;;;;;;0.40;0.20;;;;;;;19.49;81.07;100863.97;5052597;28;20516;-53
2021/08/25 08:25:15;;;;;;;0.40;0.30;;;;;;;19.44;81.21;100848.97;5052277;28;20796;-54
2021/08/25 08:27:42;;;;;;;0.40;0.30;;;;;;;19.58;80.28;100846.41;5052212;28;20473;-54
2021/08/25 08:30:10;;;;;;;0.50;0.40;;;;;;;19.67;77.96;100848.59;5051843;28;20451;-54
2021/08/25 08:32:37;;;;;;;0.40;0.30;;;;;;;19.77;78.75;100843.53;5052030;28;20486;-54
2021/08/25 08:35:04;;;;;;;0.40;0.20;;;;;;;19.61;78.08;100850.78;5052210;28;20538;-54
2021/08/25 08:37:31;;;;;;;0.67;0.67;;;;;;;19.63;78.55;100847.03;5047326;28;20473;-54
2021/08/25 08:39:58;;;;;;;0.40;0.30;;;;;;;19.62;79.20;100836.34;5052192;28;20911;-54
2021/08/25 08:42:34;;;;;;;0.83;0.83;;;;;;;19.94;77.31;100842.56;5052098;28;20447;-54
2021/08/25 08:45:03;;;;;;;0.40;0.20;;;;;;;20.11;75.15;100846.00;5051830;28;20921;-54
2021/08/25 08:47:31;;;;;;;0.70;0.60;;;;;;;20.46;75.32;100848.44;5051999;28;20470;-54
2021/08/25 08:50:00;;;;;;;0.40;0.20;;;;;;;20.13;73.52;100845.91;5051857;28;20483;-54
2021/08/25 08:52:28;;;;;;;0.40;0.30;;;;;;;19.96;74.43;100840.63;5051945;28;20496;-54
2021/08/25 08:54:57;;;;;;;0.67;0.67;;;;;;;20.14;75.74;100836.84;5034038;28;20522;-54
2021/08/25 08:57:25;;;;;;;0.40;0.30;;;;;;;20.40;73.07;100833.44;5051619;28;20490;-54
2021/08/25 08:59:52;;;;;;;0.40;0.20;;;;;;;20.50;71.87;100838.31;5051837;28;20451;-54
2021/08/25 09:02:39;;;;;;;0.40;0.20;;;;;;;20.23;71.21;100832.72;5054241;28;20905;-54
2021/08/25 09:05:20;;;;;;;0.80;0.80;;;;;;;20.17;67.44;100833.97;5039596;28;20478;-54
2021/08/25 09:07:53;;;;;;;0.40;0.20;;;;;;;20.46;70.49;100834.94;5055601;28;20467;-54
2021/08/25 09:10:27;;;;;;;0.40;0.20;;;;;;;20.72;71.06;100836.06;5038333;28;20447;-54
2021/08/25 09:13:05;;;;;;;2.40;0.87;;;;;;;20.36;70.58;100833.72;5036240;28;20913;-54
2021/08/25 09:15:39;;;;;;;0.60;0.53;;;;;;;20.53;69.62;100830.03;5050868;28;20532;-54
2021/08/25 09:18:18;;;;;;;0.60;0.60;;;;;;;20.58;69.33;100827.94;5055889;28;20453;-54
2021/08/25 09:20:49;;;;;;;0.40;0.20;;;;;;;20.65;69.90;100826.56;5055964;28;20788;-54
2021/08/25 09:23:25;;;;;;;1.53;1.43;;;;;;;21.09;70.93;100818.38;5055880;28;20524;-55
2021/08/25 09:25:54;;;;;;;1.07;1.07;;;;;;;20.92;67.40;100816.75;5055521;28;20497;-54
2021/08/25 09:28:33;;;;;;;0.70;0.63;;;;;;;21.09;67.84;100818.38;5055581;28;20521;-54
2021/08/25 09:31:09;;;;;;;103.50;4.00;;;;;;;20.88;67.48;100819.75;5056092;28;20503;-54
2021/08/25 09:33:45;;;;;;;2.20;1.63;;;;;;;21.24;67.28;100812.00;5053292;28;20532;-54
2021/08/25 09:36:15;;;;;;;0.57;0.57;;;;;;;21.39;67.84;100821.00;5034498;28;20553;-55
2021/08/25 09:38:56;;;;;;;0.50;0.30;;;;;;;21.79;69.21;100816.53;5055184;28;20534;-55
2021/08/25 09:41:23;;;;;;;0.40;0.30;;;;;;;21.50;67.45;100809.44;5055301;28;20516;-55
2021/08/25 09:43:52;;;;;;;0.40;0.30;;;;;;;21.63;66.37;100804.97;5055663;28;20504;-54
2021/08/25 09:46:21;;;;;;;1.10;0.60;;;;;;;21.70;68.92;100818.97;5048856;28;20474;-54
2021/08/25 09:48:57;;;;;;;0.40;0.30;;;;;;;21.33;67.97;100802.44;5055224;28;20457;-54
2021/08/25 09:51:26;;;;;;;1.43;0.77;;;;;;;21.39;67.78;100810.16;5055127;28;20492;-54
2021/08/25 09:54:04;;;;;;;0.40;0.20;;;;;;;21.75;67.08;100792.47;5055343;28;20446;-55
2021/08/25 09:56:34;;;;;;;0.40;0.27;;;;;;;21.54;67.64;100797.47;5054740;28;20612;-55
2021/08/25 09:59:03;;;;;;;0.60;0.60;;;;;;;21.66;69.04;100795.81;5054985;28;20493;-54
2021/08/25 10:01:30;;;;;;;0.40;0.30;;;;;;;21.40;68.41;100792.09;5042105;28;20450;-54
2021/08/25 10:04:04;;;;;;;0.40;0.30;;;;;;;21.79;68.61;100793.97;5054799;28;20443;-55
2021/08/25 10:06:31;;;;;;;1.97;1.90;;;;;;;22.00;68.23;100794.38;5037290;28;20995;-54
2021/08/25 10:08:58;;;;;;;1.33;1.23;;;;;;;21.94;68.26;100787.56;5054824;28;20482;-54
2021/08/25 10:11:30;;;;;;;1.20;1.10;;;;;;;21.86;69.47;100781.78;5037279;28;20550;-55
2021/08/25 10:13:59;;;;;;;0.40;0.30;;;;;;;22.03;67.09;100781.50;5054721;28;20454;-54
2021/08/25 10:16:45;;;;;;;1.10;1.07;;;;;;;22.02;66.32;100781.59;5054607;28;20526;-54
2021/08/25 10:19:39;;;;;;;0.40;0.20;;;;;;;22.29;65.04;100782.44;5037178;28;20470;-54
2021/08/25 10:22:15;;;;;;;0.93;0.83;;;;;;;22.19;63.87;100775.91;5054597;28;20449;-54
2021/08/25 10:24:54;;;;;;;3.27;0.60;;;;;;;22.25;60.78;100764.69;5054786;28;20459;-54
2021/08/25 10:27:23;;;;;;;0.40;0.30;;;;;;;22.52;63.36;100769.13;5054732;28;20501;-54
2021/08/25 10:30:04;;;;;;;0.40;0.30;;;;;;;21.85;61.55;100756.56;5054322;28;20914;-54
2021/08/25 10:32:37;;;;;;;3.80;1.23;;;;;;;22.13;63.06;100752.84;5046450;28;20454;-54
2021/08/25 10:35:24;;;;;;;5.93;0.67;;;;;;;22.50;63.90;100749.41;5054133;28;20894;-54
2021/08/25 10:37:52;;;;;;;0.40;0.20;;;;;;;22.39;60.70;100758.28;5049831;28;20485;-54
2021/08/25 10:40:33;;;;;;;0.40;0.30;;;;;;;22.28;60.95;100745.50;5054198;28;20501;-55
2021/08/25 10:43:02;;;;;;;0.40;0.20;;;;;;;22.15;61.21;100745.47;5036539;28;20442;-54
2021/08/25 10:45:44;;;;;;;0.40;0.40;;;;;;;22.33;56.32;100739.75;5054047;28;20454;-54
2021/08/25 10:48:12;;;;;;;0.40;0.30;;;;;;;22.38;56.04;100740.31;5054048;28;20541;-54
2021/08/25 10:50:55;;;;;;;1.03;0.93;;;;;;;22.31;58.05;100739.00;5054048;28;20976;-54
2021/08/25 10:53:29;;;;;;;0.60;0.60;;;;;;;22.30;57.17;100743.53;5053952;28;20445;-54
2021/08/25 10:56:15;;;;;;;0.40;0.30;;;;;;;22.90;55.10;100736.63;5053700;28;20560;-55
2021/08/25 10:58:54;;;;;;;2.10;1.07;;;;;;;22.70;54.71;100738.88;5053780;28;20786;-54
2021/08/25 11:01:37;;;;;;;0.47;0.30;;;;;;;22.96;54.82;100739.72;5053661;28;20442;-54
2021/08/25 11:04:10;;;;;;;0.40;0.30;;;;;;;22.66;54.98;100726.53;5043014;28;20464;-55
2021/08/25 11:06:44;;;;;;;0.53;0.53;;;;;;;22.71;55.93;100729.75;5053515;28;20467;-53
2021/08/25 11:09:34;;;;;;;0.93;0.93;;;;;;;22.74;53.51;100715.13;5053585;28;21017;-54
2021/08/25 11:12:11;;;;;;;2.20;1.53;;;;;;;22.96;54.69;100704.47;5054042;28;20492;-54
2021/08/25 11:14:38;;;;;;;0.50;0.40;;;;;;;22.89;56.11;100718.59;5040971;28;20425;-54
2021/08/25 11:17:21;;;;;;;0.40;0.30;;;;;;;22.77;53.97;100707.66;5053170;28;20522;-54
2021/08/25 11:19:52;;;;;;;0.40;0.20;;;;;;;23.03;52.95;100702.19;5036019;28;20564;-54
2021/08/25 11:22:26;;;;;;;0.60;0.60;;;;;;;23.03;52.21;100704.91;5053298;28;20451;-54
2021/08/25 11:25:07;;;;;;;0.50;0.30;;;;;;;23.32;53.78;100703.59;5052398;28;20796;-54
2021/08/25 11:27:44;;;;;;;1.53;1.07;;;;;;;23.21;53.77;100694.53;5039990;28;20942;-54
2021/08/25 11:30:22;;;;;;;0.40;0.20;;;;;;;23.05;52.91;100702.94;5053128;28;20446;-54